Time;durP1;ratioP1;P1;durP2;ratioP2;P2;SDS_P1;SDS_P2;PMS_P1;PMS_P2;Temp;Humidity;BMP_temperature;BMP_pressure;BME280_temperature;BME280_humidity;BME280_pressure;Samples;Min_cycle;Max_cycle;Signal;HPM_P1;HPM_P2
2023/06/30 00:01:21;;;;;;;;;;;;;;;26.94;38.02;100702.66;105509;1282;59408;-83
2023/06/30 00:03:47;;;;;;;;;;;;;;;26.95;37.86;100703.55;105196;1283;61329;-83
2023/06/30 00:06:12;;;;;;;;;;;;;;;26.94;37.98;100701.80;105180;1282;59410;-83
2023/06/30 00:08:38;;;;;;;;;;;;;;;26.94;38.07;100701.79;105232;1282;61182;-83
2023/06/30 00:11:03;;;;;;;;;;;;;;;26.94;38.13;100703.08;105194;1283;61187;-83
2023/06/30 00:13:28;;;;;;;;;;;;;;;26.95;37.81;100700.89;104958;1283;59433;-83
2023/06/30 00:15:54;;;;;;;;;;;;;;;26.94;37.99;100702.02;104631;1282;60099;-83
2023/06/30 00:18:20;;;;;;;;;;;;;;;26.94;38.08;100704.33;104755;1282;59999;-83
2023/06/30 00:20:45;;;;;;;;;;;;;;;26.94;38.15;100698.94;104918;1282;59997;-83
2023/06/30 00:23:15;;;;;;;;;;;;;;;26.93;38.17;100698.09;104832;1282;61242;-83
2023/06/30 00:25:40;;;;;;;;;;;;;;;26.93;37.95;100699.52;105121;1283;61387;-83
2023/06/30 00:28:06;;;;;;;;;;;;;;;26.93;37.99;100693.45;104621;1282;59988;-83
2023/06/30 00:30:32;;;;;;;;;;;;;;;26.93;38.09;100699.58;104880;1283;62343;-83
2023/06/30 00:32:58;;;;;;;;;;;;;;;26.92;38.18;100699.27;104716;1283;61328;-83
2023/06/30 00:35:23;;;;;;;;;;;;;;;26.92;38.17;100697.82;104822;1283;61452;-83
2023/06/30 00:37:49;;;;;;;;;;;;;;;26.92;37.95;100696.93;105084;1283;60075;-83
2023/06/30 00:40:14;;;;;;;;;;;;;;;26.92;38.06;100696.02;104664;1283;61158;-83
2023/06/30 00:42:40;;;;;;;;;;;;;;;26.91;37.87;100695.54;104946;1283;61432;-83
2023/06/30 00:45:05;;;;;;;;;;;;;;;26.92;38.07;100696.80;105025;1284;61359;-83
2023/06/30 00:47:31;;;;;;;;;;;;;;;26.91;38.12;100694.48;104654;1282;60072;-84
2023/06/30 00:49:57;;;;;;;;;;;;;;;26.91;38.14;100694.48;104702;1282;61718;-83
2023/06/30 00:52:23;;;;;;;;;;;;;;;26.92;38.03;100692.65;104755;1282;59959;-83
2023/06/30 00:54:48;;;;;;;;;;;;;;;26.90;37.94;100691.50;104966;1282;60053;-83
2023/06/30 00:57:14;;;;;;;;;;;;;;;26.90;38.05;100687.70;105072;1282;59413;-83
2023/06/30 00:59:40;;;;;;;;;;;;;;;26.91;38.04;100686.77;104899;1282;61262;-83
2023/06/30 01:02:08;;;;;;;;;;;;;;;26.90;38.04;100685.42;104889;1282;61372;-83
2023/06/30 01:04:38;;;;;;;;;;;;;;;26.90;38.17;100682.71;104933;1282;59978;-83
2023/06/30 01:07:03;;;;;;;;;;;;;;;26.90;38.13;100678.02;104934;1282;66796;-83
2023/06/30 01:09:30;;;;;;;;;;;;;;;26.90;38.06;100673.85;105159;1283;61405;-83
2023/06/30 01:11:55;;;;;;;;;;;;;;;26.90;37.99;100680.01;104959;1282;61525;-83
2023/06/30 01:14:21;;;;;;;;;;;;;;;26.89;38.09;100680.77;104403;1282;61250;-83
2023/06/30 01:16:47;;;;;;;;;;;;;;;26.89;38.00;100678.98;104731;1282;60000;-83
2023/06/30 01:19:26;;;;;;;;;;;;;;;26.89;37.97;100680.44;104799;1283;62268;-83
2023/06/30 01:21:55;;;;;;;;;;;;;;;26.89;38.13;100678.64;104764;1282;61368;-83
2023/06/30 01:24:21;;;;;;;;;;;;;;;26.89;38.15;100679.90;104894;1283;65911;-83
2023/06/30 01:26:49;;;;;;;;;;;;;;;26.89;38.25;100686.08;104758;1282;61361;-83
2023/06/30 01:29:15;;;;;;;;;;;;;;;26.89;38.07;100686.63;104838;1282;60006;-83
2023/06/30 01:31:43;;;;;;;;;;;;;;;26.88;37.90;100683.20;104978;1282;61398;-83
2023/06/30 01:34:08;;;;;;;;;;;;;;;26.88;38.21;100679.58;104592;1288;65403;-83
2023/06/30 01:36:34;;;;;;;;;;;;;;;26.88;38.22;100675.98;104637;1282;61394;-83
2023/06/30 01:38:59;;;;;;;;;;;;;;;26.88;38.31;100677.98;104743;1282;62381;-83
2023/06/30 01:41:24;;;;;;;;;;;;;;;26.87;38.09;100674.09;105029;1282;60091;-83
2023/06/30 01:43:50;;;;;;;;;;;;;;;26.88;38.14;100669.20;104594;1282;61324;-83
2023/06/30 01:46:15;;;;;;;;;;;;;;;26.87;38.13;100670.52;104605;1282;60137;-83
2023/06/30 01:48:41;;;;;;;;;;;;;;;26.87;38.16;100674.11;104898;1283;61382;-83
2023/06/30 01:51:07;;;;;;;;;;;;;;;26.87;38.12;100672.51;104951;1282;61893;-83
2023/06/30 01:53:32;;;;;;;;;;;;;;;26.87;38.05;100674.15;104573;1288;60119;-83
2023/06/30 01:55:58;;;;;;;;;;;;;;;26.87;38.09;100677.02;104743;1282;61276;-83
2023/06/30 01:58:24;;;;;;;;;;;;;;;26.87;38.09;100676.48;105035;1282;61397;-83
2023/06/30 02:00:49;;;;;;;;;;;;;;;26.86;38.23;100677.09;104972;1282;61484;-83
2023/06/30 02:03:15;;;;;;;;;;;;;;;26.86;38.05;100674.92;104733;1285;60097;-83
2023/06/30 02:05:40;;;;;;;;;;;;;;;26.86;38.19;100676.58;104841;1282;61349;-83
2023/06/30 02:08:06;;;;;;;;;;;;;;;26.86;38.28;100671.53;104742;1283;61417;-83
2023/06/30 02:10:31;;;;;;;;;;;;;;;26.86;38.29;100672.23;104972;1282;59378;-83
2023/06/30 02:12:57;;;;;;;;;;;;;;;26.86;38.16;100673.35;104956;1282;61344;-84
2023/06/30 02:15:22;;;;;;;;;;;;;;;26.86;38.12;100672.11;104432;1282;60059;-84
2023/06/30 02:17:48;;;;;;;;;;;;;;;26.85;38.18;100669.42;104764;1282;59979;-84
2023/06/30 02:20:13;;;;;;;;;;;;;;;26.86;38.33;100672.30;104928;1282;61394;-83
2023/06/30 02:22:39;;;;;;;;;;;;;;;26.85;38.04;100672.30;104913;1282;61540;-84
2023/06/30 02:25:05;;;;;;;;;;;;;;;26.85;38.06;100675.05;104515;1282;67692;-83
2023/06/30 02:27:30;;;;;;;;;;;;;;;26.85;37.99;100677.41;104908;1282;61282;-83
2023/06/30 02:29:56;;;;;;;;;;;;;;;26.85;38.23;100678.52;104972;1282;62283;-83
2023/06/30 02:32:22;;;;;;;;;;;;;;;26.85;38.07;100674.77;104652;1283;61241;-83
2023/06/30 02:34:47;;;;;;;;;;;;;;;26.85;38.04;100672.42;104686;1282;59499;-83
2023/06/30 02:37:13;;;;;;;;;;;;;;;26.84;38.14;100673.36;104737;1282;59995;-83
2023/06/30 02:39:38;;;;;;;;;;;;;;;26.84;38.14;100675.18;104887;1283;61386;-83
2023/06/30 02:42:04;;;;;;;;;;;;;;;26.84;38.27;100677.54;104770;1282;59985;-83
2023/06/30 02:44:30;;;;;;;;;;;;;;;26.84;38.22;100681.12;104684;1285;61305;-83
2023/06/30 02:46:56;;;;;;;;;;;;;;;26.84;38.23;100681.52;104890;1282;61256;-83
2023/06/30 02:49:22;;;;;;;;;;;;;;;26.84;38.11;100682.59;105018;1283;61394;-83
2023/06/30 02:51:48;;;;;;;;;;;;;;;26.83;38.14;100683.88;105010;1286;61436;-83
2023/06/30 02:54:14;;;;;;;;;;;;;;;26.83;38.20;100686.25;104750;1283;59953;-83
2023/06/30 02:56:39;;;;;;;;;;;;;;;26.83;38.11;100684.63;105079;1282;61400;-83
2023/06/30 02:59:04;;;;;;;;;;;;;;;26.83;38.15;100683.38;104870;1285;61292;-83
2023/06/30 03:01:30;;;;;;;;;;;;;;;26.83;38.06;100686.98;104604;1282;59891;-83
2023/06/30 03:03:55;;;;;;;;;;;;;;;26.83;38.12;100689.36;104713;1286;59967;-83
2023/06/30 03:06:21;;;;;;;;;;;;;;;26.83;38.12;100696.74;105190;1282;61241;-83
2023/06/30 03:08:46;;;;;;;;;;;;;;;26.83;38.11;100700.37;104656;1283;64008;-83
2023/06/30 03:11:12;;;;;;;;;;;;;;;26.83;38.12;100698.74;104827;1283;61380;-83
2023/06/30 03:13:37;;;;;;;;;;;;;;;26.83;38.23;100696.91;104488;1285;61377;-83
2023/06/30 03:16:07;;;;;;;;;;;;;;;26.83;38.38;100694.04;104937;1282;60021;-83
2023/06/30 03:18:33;;;;;;;;;;;;;;;26.83;38.20;100694.06;104955;1282;59961;-83
2023/06/30 03:20:58;;;;;;;;;;;;;;;26.83;38.16;100695.66;104814;1282;61439;-83
2023/06/30 03:23:23;;;;;;;;;;;;;;;26.82;38.16;100698.07;104793;1282;60400;-83
2023/06/30 03:25:49;;;;;;;;;;;;;;;26.82;38.21;100696.98;104470;1282;61374;-83
2023/06/30 03:28:14;;;;;;;;;;;;;;;26.83;38.12;100701.44;104800;1282;62207;-83
2023/06/30 03:30:40;;;;;;;;;;;;;;;26.83;38.40;100701.08;104970;1282;60011;-83
2023/06/30 03:33:05;;;;;;;;;;;;;;;26.82;38.11;100700.06;104844;1282;61395;-83
2023/06/30 03:35:31;;;;;;;;;;;;;;;26.83;38.24;100697.30;104597;1282;61265;-83
2023/06/30 03:37:56;;;;;;;;;;;;;;;26.83;38.11;100694.80;104646;1282;60156;-83
2023/06/30 03:40:22;;;;;;;;;;;;;;;26.82;38.10;100693.02;105066;1282;60351;-83
2023/06/30 03:42:47;;;;;;;;;;;;;;;26.82;38.36;100695.90;104470;1283;63921;-83
2023/06/30 03:45:14;;;;;;;;;;;;;;;26.83;38.20;100694.94;104872;1283;61474;-83
2023/06/30 03:47:39;;;;;;;;;;;;;;;26.82;38.13;100696.09;104672;1282;61330;-83
2023/06/30 03:50:05;;;;;;;;;;;;;;;26.81;38.36;100693.28;104779;1285;60047;-83
2023/06/30 03:52:31;;;;;;;;;;;;;;;26.82;38.10;100691.83;104419;1284;60034;-83
2023/06/30 03:54:56;;;;;;;;;;;;;;;26.82;38.02;100689.45;104620;1285;61684;-83
2023/06/30 03:57:22;;;;;;;;;;;;;;;26.82;38.15;100686.55;104679;1284;66805;-83
2023/06/30 03:59:47;;;;;;;;;;;;;;;26.82;38.21;100689.10;104336;1284;60139;-83
2023/06/30 04:02:12;;;;;;;;;;;;;;;26.81;38.07;100691.85;104606;1284;61282;-83
2023/06/30 04:04:38;;;;;;;;;;;;;;;26.82;38.28;100690.36;104443;1284;61411;-83
2023/06/30 04:07:04;;;;;;;;;;;;;;;26.82;38.08;100692.02;104525;1284;61581;-83
2023/06/30 04:09:29;;;;;;;;;;;;;;;26.82;38.09;100692.72;104854;1284;65909;-83
2023/06/30 04:11:54;;;;;;;;;;;;;;;26.83;38.12;100691.56;104445;1284;61258;-83
2023/06/30 04:14:20;;;;;;;;;;;;;;;26.83;37.94;100689.22;104475;1284;61394;-83
2023/06/30 04:16:45;;;;;;;;;;;;;;;26.83;38.08;100685.23;104793;1284;60277;-83
2023/06/30 04:19:11;;;;;;;;;;;;;;;26.83;38.18;100689.13;104673;1284;60092;-83
2023/06/30 04:21:36;;;;;;;;;;;;;;;26.83;38.09;100690.59;104479;1284;61347;-83
2023/06/30 04:24:02;;;;;;;;;;;;;;;26.84;38.10;100688.19;104541;1284;61418;-83
2023/06/30 04:26:28;;;;;;;;;;;;;;;26.84;37.96;100689.59;104647;1284;61275;-83
2023/06/30 04:28:56;;;;;;;;;;;;;;;26.84;38.07;100693.00;104615;1285;62220;-83
2023/06/30 04:31:21;;;;;;;;;;;;;;;26.85;37.93;100695.28;104474;1284;61380;-83
2023/06/30 04:33:49;;;;;;;;;;;;;;;26.85;38.08;100695.48;104600;1284;61362;-83
2023/06/30 04:36:14;;;;;;;;;;;;;;;26.85;37.94;100692.75;104578;1284;59380;-83
2023/06/30 04:38:40;;;;;;;;;;;;;;;26.86;38.02;100691.95;104794;1284;61422;-83
2023/06/30 04:41:06;;;;;;;;;;;;;;;26.87;37.92;100695.67;104290;1284;61377;-83
2023/06/30 04:43:32;;;;;;;;;;;;;;;26.88;38.00;100696.66;104203;1284;60031;-83
2023/06/30 04:45:58;;;;;;;;;;;;;;;26.88;38.04;100699.45;104509;1284;60163;-83
2023/06/30 04:48:23;;;;;;;;;;;;;;;26.89;38.19;100697.77;104455;1284;60045;-83
2023/06/30 04:50:49;;;;;;;;;;;;;;;26.90;37.97;100700.95;104582;1284;61393;-83
2023/06/30 04:53:14;;;;;;;;;;;;;;;26.90;38.05;100698.73;104339;1284;61536;-83
2023/06/30 04:55:40;;;;;;;;;;;;;;;26.92;37.97;100704.38;104262;1284;59919;-83
2023/06/30 04:58:05;;;;;;;;;;;;;;;26.92;38.04;100709.02;104624;1284;61509;-83
2023/06/30 05:00:31;;;;;;;;;;;;;;;26.94;37.96;100712.15;104707;1284;61393;-83
2023/06/30 05:02:57;;;;;;;;;;;;;;;26.95;38.00;100712.42;104683;1284;59935;-83
2023/06/30 05:05:23;;;;;;;;;;;;;;;26.95;38.01;100716.70;104668;1283;62047;-83
2023/06/30 05:07:48;;;;;;;;;;;;;;;26.96;37.77;100724.02;105141;1283;60106;-83
2023/06/30 05:10:14;;;;;;;;;;;;;;;26.97;37.88;100722.89;104869;1284;61271;-83
2023/06/30 05:12:39;;;;;;;;;;;;;;;26.98;37.91;100725.11;104397;1284;61376;-83
2023/06/30 05:15:05;;;;;;;;;;;;;;;26.99;37.97;100729.55;104603;1283;59978;-83
2023/06/30 05:17:30;;;;;;;;;;;;;;;27.00;37.83;100734.48;104708;1285;61373;-83
2023/06/30 05:19:56;;;;;;;;;;;;;;;27.01;37.91;100733.63;104024;1284;62310;-83
2023/06/30 05:22:21;;;;;;;;;;;;;;;27.02;37.87;100732.99;104519;1284;60076;-83
2023/06/30 05:24:47;;;;;;;;;;;;;;;27.03;37.81;100732.00;104684;1284;60121;-83
2023/06/30 05:27:14;;;;;;;;;;;;;;;27.03;37.70;100733.05;104727;1284;61314;-83
2023/06/30 05:29:40;;;;;;;;;;;;;;;27.04;37.80;100732.26;104554;1284;59956;-83
2023/06/30 05:32:05;;;;;;;;;;;;;;;27.05;37.65;100737.58;104520;1287;59988;-83
2023/06/30 05:34:31;;;;;;;;;;;;;;;27.06;37.87;100739.63;104499;1285;61399;-83
2023/06/30 05:36:56;;;;;;;;;;;;;;;27.06;37.72;100738.95;104361;1284;61415;-83
2023/06/30 05:39:22;;;;;;;;;;;;;;;27.07;37.60;100741.30;104445;1284;61361;-83
2023/06/30 05:41:48;;;;;;;;;;;;;;;27.08;37.72;100741.92;104507;1284;66665;-83
2023/06/30 05:44:13;;;;;;;;;;;;;;;27.09;37.52;100742.37;104427;1285;60276;-83
2023/06/30 05:46:39;;;;;;;;;;;;;;;27.10;37.45;100740.52;104278;1284;62369;-83
2023/06/30 05:49:05;;;;;;;;;;;;;;;27.11;37.25;100737.52;104398;1288;61370;-83
2023/06/30 05:51:34;;;;;;;;;;;;;;;27.12;37.51;100739.63;104449;1285;61411;-83
2023/06/30 05:54:01;;;;;;;;;;;;;;;27.13;37.53;100740.58;104628;1285;61261;-83
2023/06/30 05:56:27;;;;;;;;;;;;;;;27.13;37.53;100735.71;104495;1286;60179;-83
2023/06/30 05:58:52;;;;;;;;;;;;;;;27.14;37.32;100733.83;104518;1285;61420;-83
2023/06/30 06:01:18;;;;;;;;;;;;;;;27.15;37.25;100733.02;104467;1284;61284;-84
2023/06/30 06:03:44;;;;;;;;;;;;;;;27.17;37.16;100736.46;104095;1287;61381;-83
2023/06/30 06:06:10;;;;;;;;;;;;;;;27.17;37.26;100734.57;104364;1284;61410;-83
2023/06/30 06:08:38;;;;;;;;;;;;;;;27.17;37.30;100730.06;104480;1286;61421;-83
2023/06/30 06:11:03;;;;;;;;;;;;;;;27.17;37.14;100732.20;104729;1284;66213;-83
2023/06/30 06:13:36;;;;;;;;;;;;;;;27.19;37.39;100733.71;104201;1284;61309;-83
2023/06/30 06:16:01;;;;;;;;;;;;;;;27.20;37.20;100733.79;103942;1285;60369;-83
2023/06/30 06:18:27;;;;;;;;;;;;;;;27.21;37.23;100729.39;104454;1284;60075;-83
2023/06/30 06:20:52;;;;;;;;;;;;;;;27.21;37.14;100725.37;104516;1284;61388;-83
2023/06/30 06:23:18;;;;;;;;;;;;;;;27.21;37.37;100730.76;104395;1286;62273;-83
2023/06/30 06:25:43;;;;;;;;;;;;;;;27.22;37.25;100728.18;104833;1282;61263;-83
2023/06/30 06:28:08;;;;;;;;;;;;;;;27.22;37.12;100731.36;104810;1282;61474;-83
2023/06/30 06:30:34;;;;;;;;;;;;;;;27.22;37.16;100731.17;104618;1287;59296;-83
2023/06/30 06:33:00;;;;;;;;;;;;;;;27.23;36.96;100731.09;104247;1284;61426;-83
2023/06/30 06:35:26;;;;;;;;;;;;;;;27.24;36.86;100729.77;104472;1284;59976;-83
2023/06/30 06:37:51;;;;;;;;;;;;;;;27.24;37.09;100729.94;104866;1282;59465;-83
2023/06/30 06:40:17;;;;;;;;;;;;;;;27.25;37.20;100725.55;104606;1283;60050;-83
2023/06/30 06:42:42;;;;;;;;;;;;;;;27.24;37.22;100725.70;104285;1285;61557;-83
2023/06/30 06:45:08;;;;;;;;;;;;;;;27.25;37.00;100728.05;104610;1284;61272;-83
2023/06/30 06:47:52;;;;;;;;;;;;;;;27.25;37.07;100723.48;104388;1288;61370;-83
2023/06/30 06:50:18;;;;;;;;;;;;;;;27.25;36.91;100722.75;104478;1285;61266;-83
2023/06/30 06:52:44;;;;;;;;;;;;;;;27.25;36.89;100724.91;104611;1286;60168;-83
2023/06/30 06:55:09;;;;;;;;;;;;;;;27.25;36.88;100727.28;104785;1283;60058;-83
2023/06/30 06:57:35;;;;;;;;;;;;;;;27.26;36.99;100729.86;104372;1285;60133;-83
2023/06/30 07:00:00;;;;;;;;;;;;;;;27.27;36.80;100727.33;104352;1283;61341;-83
2023/06/30 07:02:25;;;;;;;;;;;;;;;27.27;36.69;100726.25;104503;1288;61406;-83
2023/06/30 07:04:51;;;;;;;;;;;;;;;27.26;36.63;100721.95;104862;1284;59685;-83
2023/06/30 07:07:17;;;;;;;;;;;;;;;27.27;36.65;100721.16;104745;1284;60170;-83
2023/06/30 07:09:43;;;;;;;;;;;;;;;27.27;36.62;100722.39;104129;1287;624866;-83
2023/06/30 07:12:08;;;;;;;;;;;;;;;27.28;36.55;100723.61;104582;1285;62299;-83
2023/06/30 07:14:35;;;;;;;;;;;;;;;27.28;36.53;100721.25;104539;1291;60185;-83
2023/06/30 07:17:01;;;;;;;;;;;;;;;27.29;36.57;100719.38;104687;1284;59824;-83
2023/06/30 07:19:27;;;;;;;;;;;;;;;27.29;36.44;100718.23;104654;1288;64770;-83
2023/06/30 07:21:52;;;;;;;;;;;;;;;27.29;36.49;100722.71;104553;1288;61402;-83
2023/06/30 07:24:18;;;;;;;;;;;;;;;27.29;36.41;100716.95;104611;1285;61435;-83
2023/06/30 07:26:43;;;;;;;;;;;;;;;27.29;36.34;100716.23;104803;1286;61550;-83
2023/06/30 07:29:09;;;;;;;;;;;;;;;27.30;36.22;100714.41;104687;1286;61378;-83
2023/06/30 07:31:34;;;;;;;;;;;;;;;27.29;36.30;100722.75;104577;1285;60068;-83
2023/06/30 07:34:00;;;;;;;;;;;;;;;27.30;36.32;100722.48;104601;1284;61866;-83
2023/06/30 07:36:26;;;;;;;;;;;;;;;27.30;36.13;100722.52;104485;1283;61387;-83
2023/06/30 07:38:51;;;;;;;;;;;;;;;27.30;36.14;100724.85;104211;1289;62039;-83
2023/06/30 07:41:17;;;;;;;;;;;;;;;27.30;36.26;100721.60;104699;1287;60160;-83
2023/06/30 07:43:42;;;;;;;;;;;;;;;27.30;36.14;100721.23;104507;1284;59442;-83
2023/06/30 07:46:08;;;;;;;;;;;;;;;27.30;36.07;100718.15;104555;1288;60012;-83
2023/06/30 07:48:33;;;;;;;;;;;;;;;27.30;36.05;100714.88;104649;1284;60096;-83
2023/06/30 07:50:59;;;;;;;;;;;;;;;27.30;36.16;100719.76;104603;1283;61305;-83
2023/06/30 07:53:24;;;;;;;;;;;;;;;27.30;36.03;100714.52;104260;1284;61364;-83
2023/06/30 07:55:50;;;;;;;;;;;;;;;27.30;35.84;100713.98;104515;1286;60164;-83
2023/06/30 07:58:15;;;;;;;;;;;;;;;27.31;36.09;100708.63;104653;1283;60041;-83
2023/06/30 08:00:41;;;;;;;;;;;;;;;27.31;36.20;100706.91;104565;1288;60021;-83
2023/06/30 08:03:06;;;;;;;;;;;;;;;27.31;36.08;100708.16;104365;1284;61439;-83
2023/06/30 08:05:32;;;;;;;;;;;;;;;27.31;35.96;100707.41;104604;1285;61271;-83
2023/06/30 08:07:58;;;;;;;;;;;;;;;27.31;35.91;100706.33;104764;1285;58918;-83
2023/06/30 08:10:23;;;;;;;;;;;;;;;27.31;35.95;100702.20;104426;1283;65629;-83
2023/06/30 08:12:49;;;;;;;;;;;;;;;27.31;35.88;100698.74;104619;1286;60095;-83
2023/06/30 08:15:14;;;;;;;;;;;;;;;27.31;36.00;100698.74;104650;1286;61386;-83
2023/06/30 08:17:40;;;;;;;;;;;;;;;27.31;35.75;100702.88;104633;1285;61257;-83
2023/06/30 08:20:06;;;;;;;;;;;;;;;27.31;35.61;100701.45;104589;1285;62273;-83
2023/06/30 08:22:31;;;;;;;;;;;;;;;27.31;35.56;100697.11;104542;1284;66651;-83
2023/06/30 08:24:56;;;;;;;;;;;;;;;27.31;35.74;100695.12;104542;1286;61414;-83
2023/06/30 08:27:22;;;;;;;;;;;;;;;27.31;35.58;100692.04;104735;1287;61238;-83
2023/06/30 08:29:48;;;;;;;;;;;;;;;27.31;35.73;100693.28;104516;1285;61277;-83
2023/06/30 08:32:14;;;;;;;;;;;;;;;27.31;35.80;100688.38;104531;1285;61289;-83
2023/06/30 08:34:39;;;;;;;;;;;;;;;27.32;35.75;100689.09;104880;1284;59998;-83
2023/06/30 08:37:05;;;;;;;;;;;;;;;27.32;35.76;100687.09;104741;1288;62367;-83
2023/06/30 08:39:31;;;;;;;;;;;;;;;27.32;35.72;100691.81;104566;1283;60255;-83
2023/06/30 08:41:57;;;;;;;;;;;;;;;27.32;35.71;100685.80;104711;1287;59973;-83
2023/06/30 08:44:25;;;;;;;;;;;;;;;27.32;35.90;100679.84;104660;1286;61381;-83
2023/06/30 08:46:51;;;;;;;;;;;;;;;27.32;35.71;100682.36;104545;1284;61385;-83
2023/06/30 08:49:16;;;;;;;;;;;;;;;27.32;36.01;100682.91;104485;1286;59996;-83
2023/06/30 08:51:42;;;;;;;;;;;;;;;27.32;35.79;100676.94;104719;1288;61383;-83
2023/06/30 08:54:07;;;;;;;;;;;;;;;27.32;36.11;100680.71;104885;1288;60379;-83
2023/06/30 08:56:33;;;;;;;;;;;;;;;27.33;35.96;100676.17;104871;1285;61404;-83
2023/06/30 08:58:59;;;;;;;;;;;;;;;27.32;35.83;100676.37;104379;1285;59999;-83
2023/06/30 09:01:24;;;;;;;;;;;;;;;27.32;35.61;100678.94;104728;1284;61542;-83
2023/06/30 09:03:50;;;;;;;;;;;;;;;27.32;35.85;100674.58;104785;1284;60298;-83
2023/06/30 09:06:16;;;;;;;;;;;;;;;27.32;36.00;100674.95;104832;1288;60110;-83
2023/06/30 09:08:45;;;;;;;;;;;;;;;27.32;35.86;100676.37;104669;1289;59456;-83
2023/06/30 09:11:11;;;;;;;;;;;;;;;27.32;35.89;100675.85;104508;1286;59957;-83
2023/06/30 09:13:37;;;;;;;;;;;;;;;27.32;35.99;100672.95;104494;1285;61479;-83
2023/06/30 09:16:08;;;;;;;;;;;;;;;27.32;35.93;100675.70;104427;1283;61334;-83
2023/06/30 09:18:34;;;;;;;;;;;;;;;27.32;35.96;100671.55;104645;1286;66605;-83
2023/06/30 09:21:00;;;;;;;;;;;;;;;27.32;36.01;100669.02;104990;1284;61296;-83
2023/06/30 09:23:27;;;;;;;;;;;;;;;27.32;35.89;100663.96;104480;1287;62369;-83
2023/06/30 09:25:54;;;;;;;;;;;;;;;27.31;35.94;100665.98;104660;1285;60028;-83
2023/06/30 09:28:19;;;;;;;;;;;;;;;27.31;35.79;100663.68;104984;1283;61183;-83
2023/06/30 09:30:47;;;;;;;;;;;;;;;27.31;36.10;100662.05;104931;1285;60161;-83
2023/06/30 09:33:16;;;;;;;;;;;;;;;27.30;35.97;100663.06;104776;1286;61252;-83
2023/06/30 09:35:43;;;;;;;;;;;;;;;27.30;35.85;100663.92;105072;1288;64652;-83
2023/06/30 09:38:10;;;;;;;;;;;;;;;27.30;35.93;100666.13;104897;1283;66151;-83
2023/06/30 09:40:37;;;;;;;;;;;;;;;27.29;35.87;100661.67;105126;1289;60359;-83
2023/06/30 09:43:02;;;;;;;;;;;;;;;27.29;35.86;100660.58;104657;1286;61346;-83
2023/06/30 09:45:28;;;;;;;;;;;;;;;27.30;35.79;100655.52;104504;1284;61365;-83
2023/06/30 09:47:54;;;;;;;;;;;;;;;27.29;35.84;100654.48;104464;1289;62115;-83
2023/06/30 09:50:27;;;;;;;;;;;;;;;27.29;35.62;100646.55;104705;1283;59968;-83
2023/06/30 09:52:52;;;;;;;;;;;;;;;27.29;35.68;100645.83;104527;1282;59884;-83
2023/06/30 09:55:18;;;;;;;;;;;;;;;27.28;35.81;100638.65;104667;1286;61394;-83
2023/06/30 09:57:45;;;;;;;;;;;;;;;27.28;35.91;100634.35;104804;1283;60015;-83
2023/06/30 10:00:12;;;;;;;;;;;;;;;27.28;35.69;100631.05;104831;1283;59528;-83
2023/06/30 10:02:37;;;;;;;;;;;;;;;27.28;35.80;100632.69;104784;1287;61167;-84
2023/06/30 10:05:03;;;;;;;;;;;;;;;27.28;35.66;100632.17;104723;1285;59844;-83
2023/06/30 10:07:29;;;;;;;;;;;;;;;27.28;35.76;100630.41;104948;1284;62143;-83
2023/06/30 10:09:54;;;;;;;;;;;;;;;27.27;35.70;100631.87;104955;1289;62369;-83
2023/06/30 10:12:19;;;;;;;;;;;;;;;27.28;35.58;100634.58;104759;1285;61526;-83
2023/06/30 10:14:45;;;;;;;;;;;;;;;27.27;35.80;100627.73;104602;1284;61163;-83
2023/06/30 10:17:10;;;;;;;;;;;;;;;27.26;35.68;100625.80;104664;1285;61232;-83
2023/06/30 10:19:36;;;;;;;;;;;;;;;27.26;35.59;100631.59;104785;1285;62343;-83
2023/06/30 10:22:03;;;;;;;;;;;;;;;27.26;35.79;100623.63;104743;1286;60029;-83
2023/06/30 10:24:29;;;;;;;;;;;;;;;27.26;35.56;100621.30;104779;1284;61267;-83
2023/06/30 10:26:55;;;;;;;;;;;;;;;27.26;35.78;100617.70;104915;1284;61862;-83
2023/06/30 10:29:20;;;;;;;;;;;;;;;27.26;35.69;100620.38;104933;1284;61362;-83
2023/06/30 10:31:47;;;;;;;;;;;;;;;27.26;35.81;100617.54;104557;1287;60093;-83
2023/06/30 10:34:12;;;;;;;;;;;;;;;27.26;35.72;100616.27;104764;1284;60028;-83
2023/06/30 10:36:38;;;;;;;;;;;;;;;27.26;35.68;100611.23;104588;1289;60111;-83
2023/06/30 10:39:04;;;;;;;;;;;;;;;27.26;36.00;100610.86;104609;1285;61449;-83
2023/06/30 10:41:29;;;;;;;;;;;;;;;27.25;35.91;100610.20;104400;1288;64768;-83
2023/06/30 10:44:08;;;;;;;;;;;;;;;27.25;35.87;100609.13;104268;1284;61592;-83
2023/06/30 10:46:41;;;;;;;;;;;;;;;27.25;35.76;100608.61;104509;1284;59968;-83
2023/06/30 10:49:06;;;;;;;;;;;;;;;27.25;35.89;100609.73;104714;1286;61283;-83
2023/06/30 10:51:38;;;;;;;;;;;;;;;27.25;36.14;100608.83;104611;1285;61396;-83
2023/06/30 10:54:03;;;;;;;;;;;;;;;27.24;35.82;100607.21;104607;1286;66653;-83
2023/06/30 10:56:29;;;;;;;;;;;;;;;27.24;36.09;100603.86;104723;1283;60228;-83
2023/06/30 10:58:58;;;;;;;;;;;;;;;27.24;36.07;100602.91;105285;1283;60494;-83
2023/06/30 11:01:23;;;;;;;;;;;;;;;27.23;35.90;100599.41;105024;1285;64707;-83
2023/06/30 11:03:55;;;;;;;;;;;;;;;27.24;35.81;100600.04;104753;1284;61398;-83
2023/06/30 11:06:20;;;;;;;;;;;;;;;27.24;35.79;100598.95;104787;1284;61375;-83
2023/06/30 11:08:59;;;;;;;;;;;;;;;27.24;36.04;100592.65;104786;1284;59969;-83
2023/06/30 11:11:27;;;;;;;;;;;;;;;27.23;35.97;100587.46;104658;1284;65003;-83
2023/06/30 11:14:05;;;;;;;;;;;;;;;27.23;35.78;100586.17;104425;1284;65875;-83
2023/06/30 11:16:39;;;;;;;;;;;;;;;27.23;35.67;100584.38;104500;1287;61369;-83
2023/06/30 11:19:05;;;;;;;;;;;;;;;27.23;36.01;100583.66;104475;1286;61160;-83
2023/06/30 11:21:32;;;;;;;;;;;;;;;27.23;35.72;100577.04;104584;1285;60020;-83
2023/06/30 11:23:58;;;;;;;;;;;;;;;27.23;35.90;100573.60;104200;1285;60097;-83
2023/06/30 11:26:24;;;;;;;;;;;;;;;27.23;35.84;100572.71;104545;1284;60060;-83
2023/06/30 11:28:49;;;;;;;;;;;;;;;27.23;35.90;100573.24;104429;1284;62256;-83
2023/06/30 11:31:15;;;;;;;;;;;;;;;27.22;35.87;100567.52;104262;1286;60060;-83
2023/06/30 11:33:41;;;;;;;;;;;;;;;27.23;35.88;100568.55;104281;1284;60075;-83
2023/06/30 11:36:17;;;;;;;;;;;;;;;27.23;35.91;100564.96;104278;1284;61355;-83
2023/06/30 11:38:51;;;;;;;;;;;;;;;27.23;35.87;100561.30;104570;1284;59960;-83
2023/06/30 11:41:17;;;;;;;;;;;;;;;27.23;35.85;100555.55;104436;1284;63931;-83
2023/06/30 11:43:46;;;;;;;;;;;;;;;27.22;35.82;100555.04;104541;1288;61406;-83
2023/06/30 11:46:13;;;;;;;;;;;;;;;27.23;35.69;100548.32;104308;1289;61380;-83
2023/06/30 11:48:40;;;;;;;;;;;;;;;27.23;35.81;100543.79;103937;1285;62412;-83
2023/06/30 11:51:06;;;;;;;;;;;;;;;27.23;35.79;100541.45;104496;1284;61268;-83
2023/06/30 11:53:31;;;;;;;;;;;;;;;27.23;35.62;100539.63;104596;1284;61380;-83
2023/06/30 11:55:57;;;;;;;;;;;;;;;27.22;35.84;100538.58;104515;1284;62271;-84
2023/06/30 11:58:22;;;;;;;;;;;;;;;27.23;35.85;100537.61;104372;1284;61263;-84
2023/06/30 12:00:48;;;;;;;;;;;;;;;27.23;35.83;100535.98;104446;1284;61362;-83
2023/06/30 12:03:14;;;;;;;;;;;;;;;27.23;35.73;100528.45;104575;1284;61274;-83
2023/06/30 12:05:41;;;;;;;;;;;;;;;27.23;35.63;100528.73;104573;1284;65798;-83
2023/06/30 12:08:09;;;;;;;;;;;;;;;27.24;35.55;100526.70;104449;1284;61386;-83
2023/06/30 12:10:38;;;;;;;;;;;;;;;27.24;35.49;100518.16;104709;1284;61099;-83
2023/06/30 12:13:07;;;;;;;;;;;;;;;27.25;35.67;100515.21;104462;1287;63912;-83
2023/06/30 12:15:32;;;;;;;;;;;;;;;27.25;35.24;100508.34;104577;1284;66074;-83
2023/06/30 12:17:58;;;;;;;;;;;;;;;27.25;35.21;100506.89;104694;1284;60015;-83
2023/06/30 12:20:30;;;;;;;;;;;;;;;27.26;35.05;100506.97;104500;1284;61661;-83